Andrews, Texas
Current Conditions -  °F | °C
As of 8:15 AM on Saturday 25 Oct 2014 (Local Time) from KE11 Reporting Station
Clear Clear  
Wind Chill: 60°   Ceiling: Unl
Heat Index: 60°   Visibility: 10mi
Dew Point: 58°   Wind: 6mph
Humidity: 95%   Direction: 200°SSW
Pressure: 30.19"   Gusts: NA
Location:  32.32°N, 102.54°W
Report Text: KE11 251315Z AUTO 20005KT 10SM CLR 15/15 A3019 RMK AO2 T01530145
Loading
Personal Weather Stations






























Interactive Weather Map
Tropical Storm Tracking
New forecast layout! Learn more

10-Day Weather Forecast

Advertisements
Track Severe Weather on mobile